This is the latest recevied weather packets stored in our database for station/object KMASWX. If no packets are shown the sender has not sent any weather packets the latest 10 day(s).
| Time | Temp. | Humidity | Pressure | Rain* | Wind** | Luminosity | Snow |
|---|---|---|---|---|---|---|---|
| 1777490040 | 18.33° C | 43% | - | 0 mm | - | - | - |
| 1777489736 | 17.78° C | 44% | - | 0 mm | - | - | - |
| 1777489432 | 17.78° C | 44% | - | 0 mm | - | - | - |
| 1777488822 | 17.22° C | 46% | - | 0 mm | - | - | - |
| 1777488519 | 17.78° C | 45% | - | 0 mm | - | - | - |
| 1777488214 | 18.33° C | 44% | - | 0 mm | - | - | - |
| 1777487911 | 17.22° C | 46% | - | 0 mm | - | - | - |
| 1777487303 | 15.56° C | 51% | - | 0 mm | - | - | - |
| 1777486999 | 15.56° C | 52% | - | 0 mm | - | - | - |
| 1777486692 | 15° C | 52% | - | 0 mm | - | - | - |
| 1777486389 | 14.44° C | 53% | - | 0 mm | - | - | - |
| 1777485779 | 14.44° C | 54% | - | 0 mm | - | - | - |
| 1777485475 | 14.44° C | 53% | - | 0 mm | - | - | - |
| 1777485168 | 14.44° C | 56% | - | 0 mm | - | - | - |
| 1777484864 | 14.44° C | 56% | - | 0 mm | - | - | - |
| 1777484561 | 13.89° C | 56% | - | 0 mm | - | - | - |
| 1777484253 | 13.89° C | 54% | - | 0 mm | - | - | - |
| 1777483646 | 14.44° C | 57% | - | 0 mm | - | - | - |
| 1777483341 | 13.33° C | 59% | - | 0 mm | - | - | - |
| 1777483035 | 13.33° C | 59% | - | 0 mm | - | - | - |
| 1777482731 | 13.33° C | 60% | - | 0 mm | - | - | - |
| 1777482121 | 12.22° C | 62% | - | 0 mm | - | - | - |
| 1777481818 | 11.67° C | 62% | - | 0 mm | - | - | - |
| 1777481515 | 11.67° C | 62% | - | 0 mm | - | - | - |
| 1777481211 | 11.67° C | 62% | - | 0 mm | - | - | - |
* Rain latest 24 hours (hover to see other rain measurements)
** Current wind speed in m/s (hover to see current wind gust speed)